createdAt,value
2022-10-17T00:01:02.167Z,97675.61
2022-10-17T00:03:35.877Z,97678.06
2022-10-17T00:06:08.334Z,97678.42
2022-10-17T00:08:37.037Z,97677.64
2022-10-17T00:11:07.584Z,97679.66
2022-10-17T00:13:35.816Z,97678.89
2022-10-17T00:16:04.200Z,97680.38
2022-10-17T00:18:32.344Z,97680.58
2022-10-17T00:21:00.457Z,97688.53
2022-10-17T00:23:30.549Z,97686.04
2022-10-17T00:26:02.390Z,97688.02
2022-10-17T00:28:31.005Z,97686.77
2022-10-17T00:31:00.456Z,97688.20
2022-10-17T00:33:29.300Z,97686.14
2022-10-17T00:36:08.621Z,97686.48
2022-10-17T00:38:37.344Z,97686.67
2022-10-17T00:41:05.962Z,97684.66
2022-10-17T00:43:50.601Z,97688.63
2022-10-17T00:46:19.172Z,97691.66
2022-10-17T00:48:48.934Z,97688.77
2022-10-17T00:51:19.118Z,97689.91
2022-10-17T00:53:47.318Z,97689.63
2022-10-17T00:56:15.614Z,97689.09
2022-10-17T00:58:45.171Z,97689.85
2022-10-17T01:01:13.379Z,97692.92
2022-10-17T01:03:41.622Z,97697.18
2022-10-17T01:06:09.679Z,97697.56
2022-10-17T01:08:38.182Z,97699.16
2022-10-17T01:11:24.947Z,97703.11
2022-10-17T01:13:57.394Z,97698.87
2022-10-17T01:16:36.049Z,97699.81
2022-10-17T01:19:09.966Z,97693.39
2022-10-17T01:21:38.140Z,97694.33
2022-10-17T01:24:15.345Z,97697.58
2022-10-17T01:26:58.889Z,97704.81
2022-10-17T01:29:30.693Z,97704.27
2022-10-17T01:32:02.138Z,97705.02
2022-10-17T01:34:45.583Z,97700.16
2022-10-17T01:37:14.995Z,97699.42
2022-10-17T01:39:47.758Z,97699.39
2022-10-17T01:42:19.430Z,97698.59
2022-10-17T01:44:50.820Z,97699.65
2022-10-17T01:47:20.984Z,97705.87
2022-10-17T01:49:51.048Z,97701.41
2022-10-17T01:52:21.194Z,97703.08
2022-10-17T01:54:52.113Z,97714.29
2022-10-17T01:57:29.886Z,97717.98
2022-10-17T01:59:59.432Z,97725.77
2022-10-17T02:02:28.055Z,97726.60
2022-10-17T02:04:57.611Z,97731.24
2022-10-17T02:07:26.533Z,97733.21
2022-10-17T02:09:54.867Z,97732.20
2022-10-17T02:12:45.845Z,97738.43
2022-10-17T02:15:17.177Z,97741.91
2022-10-17T02:17:45.605Z,97741.07
2022-10-17T02:20:13.770Z,97741.59
2022-10-17T02:22:54.285Z,97742.55
2022-10-17T02:25:22.416Z,97741.27
2022-10-17T02:28:19.389Z,97739.73
2022-10-17T02:30:50.588Z,97740.40
2022-10-17T02:33:37.559Z,97746.32
2022-10-17T02:36:17.271Z,97743.63
2022-10-17T02:38:45.832Z,97746.60
2022-10-17T02:41:16.932Z,97750.06
2022-10-17T02:43:47.546Z,97750.65
2022-10-17T02:46:22.878Z,97748.02
2022-10-17T02:48:50.987Z,97748.42
2022-10-17T02:51:36.907Z,97747.83
2022-10-17T02:54:28.556Z,97747.58
2022-10-17T02:57:02.718Z,97746.61
2022-10-17T03:02:04.536Z,97754.30
2022-10-17T03:04:33.238Z,97753.80
2022-10-17T03:07:01.369Z,97752.67
2022-10-17T03:09:29.491Z,97750.47
2022-10-17T03:11:58.517Z,97755.40
2022-10-17T03:14:26.816Z,97753.25
2022-10-17T03:16:54.938Z,97751.80
2022-10-17T03:19:23.187Z,97752.80
2022-10-17T03:21:52.126Z,97754.63
2022-10-17T03:24:20.234Z,97757.45
2022-10-17T03:26:48.402Z,97760.83
2022-10-17T03:29:16.542Z,97765.28
2022-10-17T03:31:44.815Z,97766.44
2022-10-17T03:34:12.922Z,97768.98
2022-10-17T03:36:41.110Z,97769.42
2022-10-17T03:39:09.247Z,97773.40
2022-10-17T03:41:37.556Z,97773.60
2022-10-17T03:44:05.805Z,97770.52
2022-10-17T03:46:34.279Z,97770.36
2022-10-17T03:49:02.408Z,97770.98
2022-10-17T03:51:32.817Z,97776.88
2022-10-17T03:54:03.705Z,97779.05
2022-10-17T03:56:32.033Z,97783.23
2022-10-17T03:59:12.719Z,97780.38
2022-10-17T04:01:41.028Z,97778.04
2022-10-17T04:04:09.424Z,97783.70
2022-10-17T04:06:38.176Z,97783.34
2022-10-17T04:09:07.124Z,97782.64
2022-10-17T04:11:42.215Z,97782.79
2022-10-17T04:14:10.780Z,97778.31
2022-10-17T04:16:39.571Z,97778.80
2022-10-17T04:19:13.987Z,97775.67
2022-10-17T04:21:45.718Z,97778.89
2022-10-17T04:24:14.976Z,97777.00
2022-10-17T04:26:51.185Z,97778.04
2022-10-17T04:29:19.858Z,97774.91
2022-10-17T04:31:52.475Z,97780.08
2022-10-17T04:34:24.795Z,97778.67
2022-10-17T04:36:53.136Z,97774.17
2022-10-17T04:39:21.472Z,97774.08
2022-10-17T04:41:49.635Z,97774.14
2022-10-17T04:44:18.224Z,97775.40
2022-10-17T04:46:50.474Z,97778.67
2022-10-17T04:49:18.714Z,97774.66
2022-10-17T04:51:48.590Z,97776.25
2022-10-17T04:54:30.848Z,97782.15
2022-10-17T04:57:05.031Z,97781.42
2022-10-17T04:59:33.360Z,97782.82
2022-10-17T05:02:13.830Z,97782.31
2022-10-17T05:04:41.968Z,97781.73
2022-10-17T05:07:10.456Z,97786.86
2022-10-17T05:09:49.423Z,97787.45
2022-10-17T05:12:17.835Z,97790.08
2022-10-17T05:14:46.430Z,97791.42
2022-10-17T05:17:14.786Z,97797.13
2022-10-17T05:19:43.030Z,97802.53
2022-10-17T05:22:11.160Z,97808.51
2022-10-17T05:24:40.439Z,97814.09
2022-10-17T05:27:09.761Z,97817.44
2022-10-17T05:29:38.248Z,97826.27
2022-10-17T05:32:12.320Z,97828.60
2022-10-17T05:34:40.918Z,97830.02
2022-10-17T05:37:09.090Z,97834.96
2022-10-17T05:39:37.425Z,97832.61
2022-10-17T05:42:05.970Z,97840.09
2022-10-17T05:44:34.291Z,97841.56
2022-10-17T05:47:02.750Z,97846.89
2022-10-17T05:49:39.981Z,97854.83
2022-10-17T05:52:13.417Z,97859.89
2022-10-17T05:55:07.816Z,97858.69
2022-10-17T05:57:35.944Z,97860.65
2022-10-17T06:00:05.797Z,97867.15
2022-10-17T06:02:43.773Z,97870.66
2022-10-17T06:05:15.905Z,97870.79
2022-10-17T06:07:44.479Z,97871.67
2022-10-17T06:10:16.562Z,97869.91
2022-10-17T06:12:45.421Z,97866.84
2022-10-17T06:15:13.625Z,97869.50
2022-10-17T06:17:44.310Z,97871.08
2022-10-17T06:20:12.464Z,97874.61
2022-10-17T06:22:40.581Z,97881.24
2022-10-17T06:25:15.009Z,97880.48
2022-10-17T06:27:43.390Z,97878.16
2022-10-17T06:30:12.754Z,97874.48
2022-10-17T06:32:40.915Z,97872.67
2022-10-17T06:35:09.426Z,97871.07
2022-10-17T06:37:38.220Z,97870.56
2022-10-17T06:40:12.325Z,97871.96
2022-10-17T06:42:41.658Z,97875.45
2022-10-17T06:45:24.920Z,97880.21
2022-10-17T06:48:11.481Z,97883.55
2022-10-17T06:50:53.297Z,97881.71
2022-10-17T06:53:32.377Z,97882.27
2022-10-17T06:56:19.592Z,97886.35
2022-10-17T06:58:55.560Z,97892.39
2022-10-17T07:01:31.079Z,97896.90
2022-10-17T07:04:01.369Z,97898.75
2022-10-17T07:06:31.289Z,97899.52
2022-10-17T07:09:03.590Z,97896.93
2022-10-17T07:11:31.871Z,97897.80
2022-10-17T07:13:59.994Z,97898.63
2022-10-17T07:16:28.304Z,97896.73
2022-10-17T07:19:04.045Z,97897.95
2022-10-17T07:21:39.011Z,97895.31
2022-10-17T07:24:08.730Z,97897.67
2022-10-17T07:26:36.915Z,97897.75
2022-10-17T07:29:06.627Z,97900.85
2022-10-17T07:32:00.925Z,97906.89
2022-10-17T07:34:31.590Z,97907.88
2022-10-17T07:37:00.320Z,97906.58
2022-10-17T07:39:29.349Z,97908.40
2022-10-17T07:41:58.973Z,97914.79
2022-10-17T07:44:27.123Z,97914.83
2022-10-17T07:46:55.681Z,97913.20
2022-10-17T07:49:25.554Z,97918.46
2022-10-17T07:51:53.690Z,97912.61
2022-10-17T07:54:21.952Z,97916.45
2022-10-17T07:56:50.793Z,97913.61
2022-10-17T07:59:19.535Z,97915.33
2022-10-17T08:01:47.664Z,97918.71
2022-10-17T08:04:16.971Z,97916.11
2022-10-17T08:06:45.142Z,97915.52
2022-10-17T08:09:13.288Z,97913.27
2022-10-17T08:11:44.137Z,97913.28
2022-10-17T08:14:13.334Z,97915.48
2022-10-17T08:16:41.483Z,97915.71
2022-10-17T08:19:11.647Z,97918.47
2022-10-17T08:21:39.768Z,97921.48
2022-10-17T08:24:08.000Z,97919.36
2022-10-17T08:26:39.294Z,97922.23
2022-10-17T08:29:14.344Z,97918.52
2022-10-17T08:31:46.548Z,97927.94
2022-10-17T08:34:16.533Z,97927.82
2022-10-17T08:36:44.684Z,97928.08
2022-10-17T08:39:12.879Z,97928.73
2022-10-17T08:41:41.034Z,97933.77
2022-10-17T08:44:16.657Z,97935.98
2022-10-17T08:46:47.458Z,97937.73
2022-10-17T08:49:35.896Z,97941.50
2022-10-17T08:52:07.705Z,97943.73
2022-10-17T08:54:35.754Z,97942.03
2022-10-17T08:57:03.973Z,97941.20
2022-10-17T08:59:32.178Z,97941.78
2022-10-17T09:02:19.117Z,97940.70
2022-10-17T09:04:47.267Z,97941.65
2022-10-17T09:07:15.589Z,97943.92
2022-10-17T09:09:49.628Z,97944.84
2022-10-17T09:12:21.117Z,97942.52
2022-10-17T09:14:55.285Z,97945.63
2022-10-17T09:17:23.351Z,97942.80
2022-10-17T09:19:51.445Z,97940.45
2022-10-17T09:22:22.845Z,97940.35
2022-10-17T09:24:50.937Z,97940.95
2022-10-17T09:27:22.060Z,97940.92
2022-10-17T09:29:54.713Z,97946.55
2022-10-17T09:32:24.627Z,97947.45
2022-10-17T09:34:53.502Z,97946.07
2022-10-17T09:37:25.745Z,97949.47
2022-10-17T09:39:54.007Z,97950.31
2022-10-17T09:42:27.173Z,97945.98
2022-10-17T09:45:01.803Z,97949.27
2022-10-17T09:47:34.998Z,97947.38
2022-10-17T09:50:03.157Z,97948.39
2022-10-17T09:52:35.875Z,97946.69
2022-10-17T09:55:15.935Z,97947.50
2022-10-17T09:57:52.983Z,97944.64
2022-10-17T10:00:24.993Z,97942.75
2022-10-17T10:03:08.360Z,97942.70
2022-10-17T10:05:36.576Z,97943.18
2022-10-17T10:08:06.025Z,97947.10
2022-10-17T10:10:34.361Z,97946.36
2022-10-17T10:13:04.396Z,97946.05
2022-10-17T10:15:34.405Z,97942.55
2022-10-17T10:18:03.002Z,97938.29
2022-10-17T10:20:33.095Z,97939.85
2022-10-17T10:23:10.025Z,97936.52
2022-10-17T10:25:38.331Z,97935.23
2022-10-17T10:28:12.430Z,97934.39
2022-10-17T10:30:40.605Z,97927.94
2022-10-17T10:33:11.559Z,97928.83
2022-10-17T10:35:39.793Z,97930.38
2022-10-17T10:38:14.363Z,97929.52
2022-10-17T10:40:50.697Z,97927.80
2022-10-17T10:43:23.557Z,97923.60
2022-10-17T10:45:52.313Z,97926.55
2022-10-17T10:48:27.881Z,97921.48
2022-10-17T10:50:59.005Z,97918.35
2022-10-17T10:53:27.139Z,97912.41
2022-10-17T10:55:57.219Z,97909.63
2022-10-17T10:58:28.649Z,97909.40
2022-10-17T11:00:59.191Z,97908.13
2022-10-17T11:03:32.100Z,97906.73
2022-10-17T11:06:03.367Z,97907.75
2022-10-17T11:08:31.451Z,97904.56
2022-10-17T11:11:02.552Z,97905.09
2022-10-17T11:13:43.736Z,97900.39
2022-10-17T11:16:11.844Z,97895.31
2022-10-17T11:18:44.955Z,97891.86
2022-10-17T11:21:19.380Z,97894.34
2022-10-17T11:23:47.503Z,97891.36
2022-10-17T11:26:29.495Z,97889.39
2022-10-17T11:28:58.943Z,97890.98
2022-10-17T11:31:39.387Z,97886.86
2022-10-17T11:34:19.624Z,97885.73
2022-10-17T11:36:50.216Z,97884.63
2022-10-17T11:39:20.565Z,97885.84
2022-10-17T11:41:48.650Z,97880.69
2022-10-17T11:44:26.850Z,97880.66
2022-10-17T11:46:57.553Z,97880.93
2022-10-17T11:49:29.086Z,97876.67
2022-10-17T11:52:22.805Z,97881.80
2022-10-17T11:55:02.346Z,97872.94
2022-10-17T11:57:34.992Z,97871.86
2022-10-17T12:00:12.137Z,97872.25
2022-10-17T12:03:06.544Z,97870.39
2022-10-17T12:05:37.456Z,97872.23
2022-10-17T12:08:25.256Z,97870.77
2022-10-17T12:10:58.499Z,97868.73
2022-10-17T12:13:30.501Z,97869.64
2022-10-17T12:16:18.511Z,97870.61
2022-10-17T12:18:48.195Z,97867.66
2022-10-17T12:21:16.415Z,97863.45
2022-10-17T12:23:52.607Z,97862.52
2022-10-17T12:26:27.891Z,97861.14
2022-10-17T12:28:56.779Z,97857.44
2022-10-17T12:31:32.450Z,97860.96
2022-10-17T12:34:03.119Z,97858.36
2022-10-17T12:36:31.178Z,97856.74
2022-10-17T12:39:02.401Z,97855.17
2022-10-17T12:41:39.557Z,97854.13
2022-10-17T12:44:14.800Z,97849.98
2022-10-17T12:46:45.659Z,97846.73
2022-10-17T12:49:34.204Z,97846.34
2022-10-17T12:52:11.638Z,97851.39
2022-10-17T12:54:48.078Z,97847.98
2022-10-17T12:57:46.768Z,97851.14
2022-10-17T13:00:17.353Z,97847.40
2022-10-17T13:02:45.870Z,97844.20
2022-10-17T13:05:19.779Z,97840.95
2022-10-17T13:07:49.576Z,97841.51
2022-10-17T13:10:21.999Z,97842.45
2022-10-17T13:12:51.381Z,97843.19
2022-10-17T13:15:21.063Z,97846.58
2022-10-17T13:17:55.804Z,97846.67
2022-10-17T13:20:29.127Z,97846.20
2022-10-17T13:22:59.990Z,97846.71
2022-10-17T13:25:28.214Z,97846.67
2022-10-17T13:28:07.600Z,97845.72
2022-10-17T13:30:36.805Z,97847.80
2022-10-17T13:33:16.699Z,97852.77
2022-10-17T13:36:02.591Z,97854.45
2022-10-17T13:38:36.654Z,97854.89
2022-10-17T13:41:34.304Z,97854.29
2022-10-17T13:43:59.694Z,97845.47
2022-10-17T13:46:37.795Z,97847.23
2022-10-17T13:49:11.800Z,97847.03
2022-10-17T13:51:43.213Z,97847.29
2022-10-17T13:54:18.553Z,97847.56
2022-10-17T13:56:46.832Z,97849.89
2022-10-17T13:59:25.527Z,97846.34
2022-10-17T14:01:55.416Z,97845.44
2022-10-17T14:04:23.540Z,97844.59
2022-10-17T14:06:52.546Z,97843.36
2022-10-17T14:09:25.625Z,97835.55
2022-10-17T14:12:06.745Z,97834.83
2022-10-17T14:14:51.971Z,97836.23
2022-10-17T14:17:27.694Z,97833.98
2022-10-17T14:20:30.867Z,97836.98
2022-10-17T14:25:41.649Z,97835.53
2022-10-17T14:28:14.118Z,97834.38
2022-10-17T14:30:59.107Z,97837.88
2022-10-17T14:33:29.829Z,97838.70
2022-10-17T14:35:59.134Z,97834.70
2022-10-17T14:38:28.516Z,97834.38
2022-10-17T14:41:15.686Z,97833.52
2022-10-17T14:43:59.863Z,97829.80
2022-10-17T14:46:28.130Z,97833.58
2022-10-17T14:48:59.600Z,97832.26
2022-10-17T14:51:32.448Z,97831.59
2022-10-17T14:54:26.193Z,97836.38
2022-10-17T14:56:55.069Z,97836.49
2022-10-17T14:59:52.299Z,97834.50
2022-10-17T15:02:13.653Z,97836.60
2022-10-17T15:04:42.294Z,97837.30
2022-10-17T15:07:13.448Z,97839.51
2022-10-17T15:09:42.175Z,97842.54
2022-10-17T15:12:13.213Z,97843.88
2022-10-17T15:14:41.319Z,97842.19
2022-10-17T15:17:13.846Z,97841.90
2022-10-17T15:19:42.029Z,97837.70
2022-10-17T15:22:10.415Z,97837.66
2022-10-17T15:24:38.544Z,97839.27
2022-10-17T15:27:18.908Z,97837.91
2022-10-17T15:29:47.520Z,97837.21
2022-10-17T15:32:16.251Z,97842.00
2022-10-17T15:34:44.415Z,97839.44
2022-10-17T15:37:17.877Z,97842.84
2022-10-17T15:39:53.396Z,97845.52
2022-10-17T15:42:31.450Z,97850.36
2022-10-17T15:44:59.648Z,97854.81
2022-10-17T15:47:35.918Z,97855.77
2022-10-17T15:50:04.945Z,97856.46
2022-10-17T15:52:33.160Z,97859.31
2022-10-17T15:55:04.309Z,97862.63
2022-10-17T15:57:35.684Z,97860.84
2022-10-17T16:00:05.377Z,97864.89
2022-10-17T16:02:37.551Z,97863.73
2022-10-17T16:05:11.850Z,97865.74
2022-10-17T16:07:40.007Z,97867.08
2022-10-17T16:10:10.224Z,97865.52
2022-10-17T16:12:41.423Z,97869.04
2022-10-17T16:15:14.027Z,97870.23
2022-10-17T16:17:43.914Z,97870.39
2022-10-17T16:20:12.985Z,97869.18
2022-10-17T16:22:42.813Z,97869.44
2022-10-17T16:25:19.885Z,97865.86
2022-10-17T16:27:49.199Z,97873.13
2022-10-17T16:30:17.882Z,97872.95
2022-10-17T16:32:46.337Z,97873.75
2022-10-17T16:35:17.320Z,97877.20
2022-10-17T16:37:45.515Z,97873.73
2022-10-17T16:40:14.069Z,97878.67
2022-10-17T16:42:42.293Z,97877.02
2022-10-17T16:45:16.037Z,97877.84
2022-10-17T16:47:44.347Z,97875.32
2022-10-17T16:50:12.635Z,97880.27
2022-10-17T16:52:40.991Z,97878.95
2022-10-17T16:55:10.123Z,97881.56
2022-10-17T16:57:38.577Z,97879.46
2022-10-17T17:00:07.311Z,97881.88
2022-10-17T17:02:35.532Z,97882.90
2022-10-17T17:05:04.075Z,97883.75
2022-10-17T17:07:33.625Z,97888.19
2022-10-17T17:10:01.894Z,97887.98
2022-10-17T17:12:32.056Z,97888.46
2022-10-17T17:15:00.205Z,97892.99
2022-10-17T17:17:30.782Z,97890.64
2022-10-17T17:20:05.631Z,97893.77
2022-10-17T17:22:34.506Z,97892.56
2022-10-17T17:25:02.576Z,97891.48
2022-10-17T17:27:31.007Z,97890.96
2022-10-17T17:29:59.204Z,97890.45
2022-10-17T17:32:27.396Z,97891.86
2022-10-17T17:34:55.573Z,97892.88
2022-10-17T17:37:23.820Z,97894.36
2022-10-17T17:39:51.923Z,97895.89
2022-10-17T17:42:20.599Z,97897.21
2022-10-17T17:44:49.209Z,97899.43
2022-10-17T17:47:17.314Z,97901.27
2022-10-17T17:49:45.417Z,97905.73
2022-10-17T17:52:13.681Z,97907.06
2022-10-17T17:54:41.929Z,97908.17
2022-10-17T17:57:10.238Z,97913.78
2022-10-17T17:59:39.707Z,97912.46
2022-10-17T18:02:09.004Z,97909.88
2022-10-17T18:04:37.143Z,97909.06
2022-10-17T18:07:05.291Z,97909.90
2022-10-17T18:09:33.408Z,97908.53
2022-10-17T18:12:01.558Z,97906.05
2022-10-17T18:14:29.720Z,97901.22
2022-10-17T18:16:57.821Z,97901.63
2022-10-17T18:19:28.443Z,97903.23
2022-10-17T18:21:56.821Z,97900.91
2022-10-17T18:24:24.956Z,97902.95
2022-10-17T18:26:56.223Z,97904.44
2022-10-17T18:29:24.477Z,97901.70
2022-10-17T18:31:52.574Z,97905.94
2022-10-17T18:34:21.142Z,97904.67
2022-10-17T18:36:49.277Z,97906.23
2022-10-17T18:39:18.062Z,97906.23
2022-10-17T18:41:46.220Z,97908.10
2022-10-17T18:44:15.635Z,97902.63
2022-10-17T18:49:15.406Z,97904.77
2022-10-17T18:51:43.474Z,97901.95
2022-10-17T18:54:14.502Z,97902.39
2022-10-17T18:56:43.217Z,97904.31
2022-10-17T18:59:11.313Z,97910.40
2022-10-17T19:01:39.510Z,97910.69
2022-10-17T19:04:07.672Z,97909.46
2022-10-17T19:06:35.813Z,97911.43
2022-10-17T19:09:05.820Z,97906.65
2022-10-17T19:11:34.471Z,97909.35
2022-10-17T19:14:03.610Z,97909.92
2022-10-17T19:16:33.824Z,97911.81
2022-10-17T19:19:04.116Z,97911.80
2022-10-17T19:21:32.652Z,97911.17
2022-10-17T19:24:02.237Z,97912.06
2022-10-17T19:26:31.254Z,97913.61
2022-10-17T19:29:00.647Z,97912.20
2022-10-17T19:31:29.925Z,97915.92
2022-10-17T19:33:58.221Z,97916.53
2022-10-17T19:36:32.390Z,97919.45
2022-10-17T19:39:04.118Z,97921.16
2022-10-17T19:41:32.549Z,97920.55
2022-10-17T19:44:00.822Z,97919.29
2022-10-17T19:46:29.779Z,97916.94
2022-10-17T19:48:58.360Z,97915.70
2022-10-17T19:51:26.879Z,97911.47
2022-10-17T19:53:55.953Z,97911.02
2022-10-17T19:56:24.980Z,97907.95
2022-10-17T19:58:54.845Z,97903.59
2022-10-17T20:01:25.584Z,97902.22
2022-10-17T20:03:54.583Z,97902.06
2022-10-17T20:06:23.563Z,97901.48
2022-10-17T20:08:52.192Z,97899.24
2022-10-17T20:11:22.467Z,97905.35
2022-10-17T20:13:53.672Z,97906.42
2022-10-17T20:16:23.268Z,97907.42
2022-10-17T20:18:53.764Z,97905.39
2022-10-17T20:21:27.465Z,97898.77
2022-10-17T20:23:55.833Z,97899.73
2022-10-17T20:26:37.063Z,97899.17
2022-10-17T20:29:17.227Z,97898.79
2022-10-17T20:31:46.041Z,97901.38
2022-10-17T20:34:15.014Z,97903.00
2022-10-17T20:36:45.356Z,97904.15
2022-10-17T20:39:14.937Z,97900.31
2022-10-17T20:41:44.013Z,97899.07
2022-10-17T20:44:12.922Z,97903.08
2022-10-17T20:46:52.949Z,97903.84
2022-10-17T20:49:34.568Z,97903.69
2022-10-17T20:52:07.125Z,97900.55
2022-10-17T20:54:35.340Z,97897.84
2022-10-17T20:57:04.978Z,97895.12
2022-10-17T20:59:38.432Z,97898.41
2022-10-17T21:02:11.134Z,97898.47
2022-10-17T21:04:47.294Z,97899.01
2022-10-17T21:07:16.044Z,97896.67
2022-10-17T21:09:45.565Z,97899.51
2022-10-17T21:12:25.965Z,97896.96
2022-10-17T21:15:05.071Z,97898.38
2022-10-17T21:17:33.248Z,97892.46
2022-10-17T21:20:03.807Z,97896.13
2022-10-17T21:22:33.455Z,97893.91
2022-10-17T21:25:01.683Z,97896.88
2022-10-17T21:27:29.824Z,97895.03
2022-10-17T21:29:58.150Z,97897.36
2022-10-17T21:32:47.201Z,97897.36
2022-10-17T21:35:16.601Z,97896.27
2022-10-17T21:37:44.687Z,97896.31
2022-10-17T21:40:12.987Z,97894.19
2022-10-17T21:42:41.119Z,97894.92
2022-10-17T21:45:15.051Z,97897.51
2022-10-17T21:47:54.973Z,97897.70
2022-10-17T21:50:32.564Z,97901.19
2022-10-17T21:53:00.681Z,97904.17
2022-10-17T21:55:28.804Z,97900.17
2022-10-17T21:57:56.972Z,97898.86
2022-10-17T22:00:25.110Z,97897.92
2022-10-17T22:02:53.265Z,97894.77
2022-10-17T22:05:21.392Z,97890.98
2022-10-17T22:07:49.480Z,97888.64
2022-10-17T22:10:17.610Z,97883.88
2022-10-17T22:12:45.701Z,97886.75
2022-10-17T22:17:42.848Z,97886.13
2022-10-17T22:20:10.991Z,97884.31
2022-10-17T22:22:39.131Z,97886.77
2022-10-17T22:25:07.434Z,97882.92
2022-10-17T22:27:35.552Z,97883.95
2022-10-17T22:30:04.064Z,97882.36
2022-10-17T22:32:32.165Z,97878.36
2022-10-17T22:35:00.242Z,97876.94
2022-10-17T22:37:28.563Z,97872.52
2022-10-17T22:39:56.879Z,97873.33
2022-10-17T22:42:25.018Z,97872.64
2022-10-17T22:44:53.153Z,97873.56
2022-10-17T22:47:21.225Z,97874.16
2022-10-17T22:49:49.293Z,97870.97
2022-10-17T22:52:17.387Z,97871.94
2022-10-17T22:54:45.457Z,97870.77
2022-10-17T22:57:13.605Z,97868.80
2022-10-17T22:59:41.989Z,97864.45
2022-10-17T23:02:10.086Z,97860.04
2022-10-17T23:04:38.267Z,97855.85
2022-10-17T23:07:11.374Z,97855.82
2022-10-17T23:09:39.556Z,97855.94
2022-10-17T23:12:08.090Z,97858.82
2022-10-17T23:14:43.290Z,97854.26
2022-10-17T23:17:12.038Z,97859.02
2022-10-17T23:19:40.217Z,97858.63
2022-10-17T23:22:08.433Z,97856.14
2022-10-17T23:24:36.566Z,97860.65
2022-10-17T23:27:04.787Z,97858.87
2022-10-17T23:29:33.808Z,97861.67
2022-10-17T23:32:01.903Z,97862.74
2022-10-17T23:34:30.678Z,97862.29
2022-10-17T23:36:58.860Z,97863.63
2022-10-17T23:39:27.182Z,97861.88
2022-10-17T23:41:55.270Z,97862.02
2022-10-17T23:44:23.927Z,97858.91
2022-10-17T23:46:51.994Z,97863.02
2022-10-17T23:49:20.067Z,97855.22
2022-10-17T23:51:48.182Z,97850.95
2022-10-17T23:54:16.327Z,97852.14
2022-10-17T23:56:44.424Z,97846.64
2022-10-17T23:59:12.635Z,97847.54
